Time;durP1;ratioP1;P1;durP2;ratioP2;P2;SDS_P1;SDS_P2;PMS_P1;PMS_P2;Temp;Humidity;BMP_temperature;BMP_pressure;BME280_temperature;BME280_humidity;BME280_pressure;Samples;Min_cycle;Max_cycle;Signal;HPM_P1;HPM_P2
2021/01/12 00:01:54;;;;;;;15.83;10.83;;;1.60;69.90;;;;;;6199822;28;20050;-75
2021/01/12 00:04:55;;;;;;;18.93;11.47;;;1.70;69.90;;;;;;6200453;28;20088;-74
2021/01/12 00:07:57;;;;;;;17.53;11.97;;;1.70;69.70;;;;;;6198950;28;20045;-74
2021/01/12 00:10:59;;;;;;;20.57;9.00;;;1.80;70.40;;;;;;6199058;28;20479;-74
2021/01/12 00:14:00;;;;;;;16.47;11.40;;;1.80;69.70;;;;;;6199222;28;20050;-75
2021/01/12 00:17:04;;;;;;;20.03;10.53;;;1.80;70.00;;;;;;6198903;28;20053;-74
2021/01/12 00:20:07;;;;;;;14.30;9.33;;;1.80;70.00;;;;;;6199107;28;20117;-74
2021/01/12 00:23:09;;;;;;;19.43;11.00;;;1.90;70.00;;;;;;6199577;28;20046;-74
2021/01/12 00:26:10;;;;;;;16.27;9.27;;;1.90;69.80;;;;;;6198521;28;20530;-74
2021/01/12 00:29:12;;;;;;;18.20;9.73;;;2.00;69.70;;;;;;6199474;28;20054;-74
2021/01/12 00:32:17;;;;;;;14.60;9.90;;;2.00;69.70;;;;;;6198619;28;20045;-74
2021/01/12 00:35:18;;;;;;;14.90;9.97;;;2.00;69.80;;;;;;6198773;28;20049;-75
2021/01/12 00:38:21;;;;;;;16.70;11.43;;;2.00;69.80;;;;;;6198748;28;20522;-74
2021/01/12 00:41:22;;;;;;;16.47;8.60;;;2.10;70.10;;;;;;6199174;28;20046;-74
2021/01/12 00:44:24;;;;;;;17.87;10.20;;;2.10;70.30;;;;;;6198583;28;20133;-74
2021/01/12 00:47:26;;;;;;;18.87;12.20;;;2.20;70.40;;;;;;6198272;28;20100;-74
2021/01/12 00:50:27;;;;;;;16.70;10.67;;;2.20;70.40;;;;;;6198323;28;20069;-75
2021/01/12 00:53:29;;;;;;;16.90;10.20;;;2.20;70.60;;;;;;6198446;28;20058;-74
2021/01/12 00:56:30;;;;;;;19.03;11.73;;;2.20;70.50;;;;;;6198991;28;20054;-74
2021/01/12 00:59:32;;;;;;;17.00;11.43;;;2.20;70.60;;;;;;6198723;28;20081;-74
2021/01/12 01:02:34;;;;;;;18.43;12.17;;;2.20;70.60;;;;;;6198308;28;20092;-74
2021/01/12 01:05:36;;;;;;;16.50;10.23;;;2.20;70.20;;;;;;6194840;28;20046;-75
2021/01/12 01:08:39;;;;;;;14.33;9.07;;;2.20;70.80;;;;;;6198701;28;20133;-75
2021/01/12 01:11:41;;;;;;;16.50;10.20;;;2.20;70.80;;;;;;6198343;28;20046;-75
2021/01/12 01:14:42;;;;;;;13.60;9.83;;;2.30;71.40;;;;;;6198315;28;20046;-75
2021/01/12 01:17:44;;;;;;;16.83;10.77;;;2.30;71.70;;;;;;6198044;28;20055;-75
2021/01/12 01:20:45;;;;;;;14.10;9.17;;;2.30;72.10;;;;;;6198867;28;20046;-74
2021/01/12 01:23:47;;;;;;;14.73;9.90;;;2.30;72.30;;;;;;6198210;28;20046;-75
2021/01/12 01:26:54;;;;;;;13.97;9.23;;;2.30;72.50;;;;;;6198154;28;20526;-75
2021/01/12 01:29:56;;;;;;;12.23;9.33;;;2.30;72.50;;;;;;6201045;28;20126;-75
2021/01/12 01:32:58;;;;;;;12.40;9.13;;;2.40;72.60;;;;;;6203560;28;20051;-75
2021/01/12 01:35:59;;;;;;;13.40;8.60;;;2.40;72.50;;;;;;6203103;28;20054;-75
2021/01/12 01:39:02;;;;;;;14.20;10.43;;;2.40;72.40;;;;;;6202941;28;20043;-74
2021/01/12 01:42:04;;;;;;;16.23;11.57;;;2.40;72.30;;;;;;6202917;28;20046;-75
2021/01/12 01:45:08;;;;;;;15.70;10.17;;;2.40;72.10;;;;;;6203302;28;20054;-75
2021/01/12 01:48:10;;;;;;;15.53;10.13;;;2.40;72.10;;;;;;6202476;28;20038;-75
2021/01/12 01:51:12;;;;;;;24.80;9.77;;;2.40;72.00;;;;;;6222332;22;20439;-77
2021/01/12 01:54:14;;;;;;;15.57;10.67;;;2.30;72.10;;;;;;6179862;28;20093;-77
2021/01/12 01:57:15;;;;;;;16.77;10.83;;;2.40;72.00;;;;;;6179905;28;20530;-77
2021/01/12 02:00:19;;;;;;;14.23;9.43;;;2.30;71.90;;;;;;6179382;28;20096;-77
2021/01/12 02:03:26;;;;;;;17.60;10.47;;;2.30;72.10;;;;;;6163129;28;20078;-77
2021/01/12 02:06:32;;;;;;;14.17;9.53;;;2.40;72.40;;;;;;6155133;29;20480;-77
2021/01/12 02:09:38;;;;;;;14.70;9.30;;;2.40;72.70;;;;;;6154578;29;20052;-77
2021/01/12 02:12:46;;;;;;;17.67;10.43;;;2.40;72.80;;;;;;6154467;28;20061;-78
2021/01/12 02:15:48;;;;;;;13.32;8.63;;;2.40;73.00;;;;;;6172366;28;20050;-78
2021/01/12 02:18:52;;;;;;;16.07;11.53;;;2.40;73.10;;;;;;6166054;28;20126;-77
2021/01/12 02:21:58;;;;;;;13.33;9.07;;;2.40;73.00;;;;;;6153862;28;20103;-77
2021/01/12 02:25:00;;;;;;;15.77;9.30;;;2.40;72.90;;;;;;6154969;29;20055;-77
2021/01/12 02:28:07;;;;;;;17.43;11.77;;;2.50;72.60;;;;;;6196653;28;20054;-77
2021/01/12 02:31:08;;;;;;;16.10;10.47;;;2.40;72.60;;;;;;6201281;28;20125;-77
2021/01/12 02:34:15;;;;;;;16.47;10.53;;;2.40;72.40;;;;;;6201954;28;20536;-78
2021/01/12 02:37:18;;;;;;;12.33;9.43;;;2.40;72.50;;;;;;6202271;28;20664;-78
2021/01/12 02:40:20;;;;;;;17.67;9.93;;;2.40;72.20;;;;;;6201819;28;20058;-77
2021/01/12 02:43:22;;;;;;;18.67;10.97;;;2.40;72.20;;;;;;6201939;28;20046;-78
2021/01/12 02:46:23;;;;;;;12.93;10.00;;;2.40;72.10;;;;;;6201848;28;20125;-78
2021/01/12 02:49:24;;;;;;;16.07;11.57;;;2.30;72.40;;;;;;6202008;28;20133;-77
2021/01/12 02:52:26;;;;;;;15.83;10.33;;;2.30;72.60;;;;;;6202305;28;20058;-78
2021/01/12 02:55:28;;;;;;;15.77;8.87;;;2.30;72.70;;;;;;6202053;28;20530;-77
2021/01/12 02:58:29;;;;;;;17.33;9.67;;;2.30;72.70;;;;;;6202571;28;20081;-78
2021/01/12 03:01:30;;;;;;;17.23;10.77;;;2.30;73.00;;;;;;6202345;28;20133;-78
2021/01/12 03:04:32;;;;;;;12.77;8.97;;;2.30;73.20;;;;;;6202984;28;20136;-77
2021/01/12 03:07:33;;;;;;;15.70;9.77;;;2.30;73.10;;;;;;6202096;28;20465;-78
2021/01/12 03:10:36;;;;;;;12.73;9.57;;;2.30;72.90;;;;;;6201985;28;20416;-77
2021/01/12 03:13:37;;;;;;;15.50;9.50;;;2.40;73.10;;;;;;6201966;28;20054;-77
2021/01/12 03:16:38;;;;;;;19.47;10.77;;;2.30;73.00;;;;;;6201140;28;20096;-77
2021/01/12 03:19:40;;;;;;;12.20;7.87;;;2.30;73.50;;;;;;6201278;28;20532;-78
2021/01/12 03:22:41;;;;;;;15.23;10.60;;;2.40;73.30;;;;;;6200376;28;20129;-77
2021/01/12 03:25:43;;;;;;;16.80;9.70;;;2.40;73.20;;;;;;6201692;28;20137;-77
2021/01/12 03:28:44;;;;;;;12.60;8.83;;;2.40;73.20;;;;;;6201470;28;20081;-77
2021/01/12 03:31:46;;;;;;;13.93;8.13;;;2.40;73.00;;;;;;6199583;28;20511;-77
2021/01/12 03:34:47;;;;;;;14.67;9.67;;;2.40;73.10;;;;;;6199550;28;20054;-78
2021/01/12 03:37:49;;;;;;;12.50;8.43;;;2.40;73.00;;;;;;6199240;28;20066;-77
2021/01/12 03:40:54;;;;;;;13.60;8.20;;;2.40;72.90;;;;;;6200310;28;20046;-77
2021/01/12 03:43:55;;;;;;;18.03;10.53;;;2.50;72.80;;;;;;6199523;28;20050;-77
2021/01/12 03:46:57;;;;;;;13.97;8.97;;;2.50;72.80;;;;;;6199261;28;20392;-78
2021/01/12 03:49:58;;;;;;;13.53;9.37;;;2.50;72.80;;;;;;6199665;28;20052;-77
2021/01/12 03:52:59;;;;;;;13.83;8.47;;;2.50;72.70;;;;;;6200657;28;20186;-78
2021/01/12 03:56:02;;;;;;;11.63;7.60;;;2.50;72.70;;;;;;6199188;28;20097;-78
2021/01/12 03:59:03;;;;;;;12.57;9.20;;;2.50;72.60;;;;;;6199926;28;20432;-77
2021/01/12 04:02:04;;;;;;;16.87;8.10;;;2.50;72.70;;;;;;6199734;28;20042;-77
2021/01/12 04:05:07;;;;;;;13.70;8.57;;;2.60;72.90;;;;;;6199942;28;20050;-77
2021/01/12 04:08:11;;;;;;;12.87;7.43;;;2.50;73.10;;;;;;6198730;28;20038;-77
2021/01/12 04:11:15;;;;;;;10.00;7.57;;;2.50;73.30;;;;;;6198771;28;20050;-77
2021/01/12 04:14:16;;;;;;;13.17;8.60;;;2.60;73.40;;;;;;6199202;28;20113;-77
2021/01/12 04:17:18;;;;;;;11.33;7.27;;;2.60;73.60;;;;;;6199253;28;20082;-77
2021/01/12 04:20:19;;;;;;;10.63;7.13;;;2.60;74.00;;;;;;6198793;28;20052;-78
2021/01/12 04:23:21;;;;;;;12.30;8.57;;;2.60;74.30;;;;;;6198605;28;20467;-78
2021/01/12 04:26:23;;;;;;;12.57;7.57;;;2.60;74.80;;;;;;6198413;28;20504;-77
2021/01/12 04:29:24;;;;;;;11.83;8.00;;;2.60;75.40;;;;;;6198463;28;20105;-78
2021/01/12 04:32:26;;;;;;;13.27;8.37;;;2.60;75.80;;;;;;6199849;28;20054;-77
2021/01/12 04:35:28;;;;;;;9.70;6.50;;;2.60;76.70;;;;;;6198861;28;20074;-77
2021/01/12 04:38:30;;;;;;;10.70;8.47;;;2.60;77.70;;;;;;6198663;28;20042;-77
2021/01/12 04:41:32;;;;;;;11.50;6.80;;;2.60;78.50;;;;;;6198127;28;20077;-76
2021/01/12 04:44:33;;;;;;;10.20;6.07;;;2.50;78.70;;;;;;6199558;28;20054;-77
2021/01/12 04:47:34;;;;;;;11.83;7.30;;;2.50;80.00;;;;;;6198211;28;20046;-78
2021/01/12 04:50:36;;;;;;;9.80;7.43;;;2.50;80.80;;;;;;6198056;28;20038;-78
2021/01/12 04:53:38;;;;;;;12.43;7.93;;;2.40;81.40;;;;;;6197595;28;20145;-77
2021/01/12 04:56:43;;;;;;;11.50;7.13;;;2.40;81.90;;;;;;6197919;28;20427;-77
2021/01/12 04:59:44;;;;;;;12.63;8.83;;;2.40;82.10;;;;;;6197872;28;20057;-78
2021/01/12 05:02:58;;;;;;;15.63;8.80;;;2.40;82.80;;;;;;6197391;28;20050;-77
2021/01/12 05:06:00;;;;;;;12.77;7.00;;;2.30;83.20;;;;;;6197355;28;20088;-77
2021/01/12 05:09:01;;;;;;;10.10;7.57;;;2.20;83.90;;;;;;6198326;28;20047;-77
2021/01/12 05:12:05;;;;;;;11.03;7.57;;;2.20;84.50;;;;;;6197376;28;20050;-77
2021/01/12 05:15:11;;;;;;;15.27;8.07;;;2.20;84.90;;;;;;6197456;28;20220;-77
2021/01/12 05:18:16;;;;;;;12.33;8.10;;;2.20;85.60;;;;;;6197775;28;20046;-77
2021/01/12 05:21:18;;;;;;;13.10;8.87;;;2.20;86.00;;;;;;6197856;28;20054;-77
2021/01/12 05:24:21;;;;;;;12.73;8.43;;;2.10;86.50;;;;;;6197262;28;20050;-77
2021/01/12 05:27:24;;;;;;;13.57;9.10;;;2.10;87.20;;;;;;6197148;28;20042;-77
2021/01/12 05:30:26;;;;;;;11.30;8.87;;;2.10;87.60;;;;;;6196892;28;20048;-77
2021/01/12 05:33:31;;;;;;;15.97;10.87;;;2.00;88.90;;;;;;6197306;28;20139;-78
2021/01/12 05:36:33;;;;;;;16.83;8.70;;;2.00;90.00;;;;;;6199341;28;20212;-77
2021/01/12 05:39:39;;;;;;;15.50;8.60;;;2.00;90.40;;;;;;6197751;28;20090;-78
2021/01/12 05:42:42;;;;;;;13.77;8.60;;;1.90;90.70;;;;;;6197837;28;20051;-77
2021/01/12 05:45:44;;;;;;;13.93;8.67;;;1.90;91.20;;;;;;6199022;28;20051;-77
2021/01/12 05:48:46;;;;;;;15.13;9.77;;;1.80;91.60;;;;;;6198671;28;20412;-77
2021/01/12 05:51:50;;;;;;;15.37;8.83;;;1.80;92.00;;;;;;6198475;28;20070;-77
2021/01/12 05:55:02;;;;;;;12.70;8.40;;;1.80;92.50;;;;;;6198269;28;20438;-77
2021/01/12 05:58:17;;;;;;;18.23;10.63;;;1.80;93.00;;;;;;6198119;28;20416;-78
2021/01/12 06:01:31;;;;;;;16.80;9.87;;;1.70;93.30;;;;;;6198263;28;20050;-77
2021/01/12 06:04:34;;;;;;;13.97;9.20;;;1.70;93.60;;;;;;6198141;28;20411;-77
2021/01/12 06:07:38;;;;;;;15.23;7.97;;;1.70;93.60;;;;;;6198477;28;20059;-77
2021/01/12 06:10:42;;;;;;;13.50;8.70;;;1.80;93.70;;;;;;6198204;28;20051;-77
2021/01/12 06:13:53;;;;;;;11.60;7.80;;;1.80;93.80;;;;;;6197818;28;20058;-77
2021/01/12 06:16:56;;;;;;;11.73;8.70;;;1.90;93.90;;;;;;6202063;28;20415;-77
2021/01/12 06:20:03;;;;;;;12.97;7.83;;;1.80;94.20;;;;;;6202220;28;20061;-77
2021/01/12 06:23:07;;;;;;;11.13;7.43;;;1.90;94.50;;;;;;6202143;28;20621;-77
2021/01/12 06:26:10;;;;;;;16.27;8.13;;;1.90;94.60;;;;;;6201580;28;20049;-77
2021/01/12 06:29:12;;;;;;;13.00;7.03;;;1.90;94.70;;;;;;6202796;28;20053;-77
2021/01/12 06:32:16;;;;;;;10.87;7.70;;;1.90;95.00;;;;;;6201380;28;20480;-77
2021/01/12 06:35:17;;;;;;;13.60;8.77;;;1.90;95.30;;;;;;6200971;28;20479;-77
2021/01/12 06:38:20;;;;;;;13.10;7.97;;;1.90;95.60;;;;;;6200936;28;20571;-77
2021/01/12 06:41:22;;;;;;;12.53;7.43;;;1.90;95.70;;;;;;6201328;28;20100;-77
2021/01/12 06:44:26;;;;;;;11.43;7.93;;;1.90;96.00;;;;;;6201441;28;20054;-77
2021/01/12 06:47:28;;;;;;;12.13;8.53;;;1.90;96.30;;;;;;6200410;28;20051;-77
2021/01/12 06:50:32;;;;;;;13.07;8.40;;;1.90;96.90;;;;;;6201574;28;20131;-77
2021/01/12 06:53:33;;;;;;;13.10;7.90;;;1.90;96.70;;;;;;6201122;28;20675;-77
2021/01/12 06:56:41;;;;;;;12.13;8.00;;;1.80;97.10;;;;;;6201742;28;20053;-77
2021/01/12 06:59:45;;;;;;;14.38;8.10;;;1.80;97.40;;;;;;6201739;28;20046;-77
2021/01/12 07:02:55;;;;;;;13.53;9.47;;;1.70;97.70;;;;;;6200922;28;20137;-78
2021/01/12 07:06:00;;;;;;;11.57;7.87;;;1.70;98.10;;;;;;6191986;28;20074;-77
2021/01/12 07:09:03;;;;;;;16.00;8.20;;;1.70;98.40;;;;;;6185087;28;20042;-78
2021/01/12 07:12:06;;;;;;;15.80;9.13;;;1.70;98.60;;;;;;6199406;28;20077;-78
2021/01/12 07:15:11;;;;;;;12.13;9.13;;;1.70;98.90;;;;;;6209094;28;20185;-77
2021/01/12 07:18:12;;;;;;;17.03;10.03;;;1.70;99.30;;;;;;6202023;28;20208;-77
2021/01/12 07:21:13;;;;;;;15.53;9.00;;;1.70;99.50;;;;;;6202915;28;20046;-77
2021/01/12 07:24:17;;;;;;;13.07;8.37;;;1.70;99.70;;;;;;6202530;28;20075;-79
2021/01/12 07:27:20;;;;;;;14.80;7.93;;;1.70;99.90;;;;;;6200790;28;20411;-78
2021/01/12 07:30:23;;;;;;;16.57;8.90;;;1.70;99.90;;;;;;6201167;28;20459;-78
2021/01/12 07:33:26;;;;;;;15.20;9.03;;;1.70;99.90;;;;;;6200218;28;20057;-77
2021/01/12 07:36:27;;;;;;;13.80;9.43;;;1.70;99.90;;;;;;6200288;28;20396;-78
2021/01/12 07:39:32;;;;;;;11.87;7.77;;;1.70;99.90;;;;;;6200474;28;20046;-77
2021/01/12 07:42:34;;;;;;;13.03;8.63;;;1.70;99.90;;;;;;6202103;28;20050;-78
2021/01/12 07:45:37;;;;;;;14.90;8.77;;;1.70;99.90;;;;;;6199675;28;20057;-78
2021/01/12 07:48:38;;;;;;;11.60;7.20;;;1.80;99.90;;;;;;6199999;28;20153;-77
2021/01/12 07:51:44;;;;;;;16.50;7.40;;;1.80;99.90;;;;;;6201701;28;20110;-78
2021/01/12 07:54:46;;;;;;;16.80;9.57;;;1.80;99.90;;;;;;6203966;28;20130;-78
2021/01/12 07:57:48;;;;;;;12.17;7.67;;;1.80;99.90;;;;;;6202800;28;20057;-79
2021/01/12 08:00:50;;;;;;;11.57;7.87;;;1.80;99.90;;;;;;6203926;28;20111;-78
2021/01/12 08:03:52;;;;;;;16.30;9.47;;;1.90;99.90;;;;;;6203008;28;20065;-79
2021/01/12 08:06:53;;;;;;;11.90;7.80;;;1.90;99.90;;;;;;6204040;28;20516;-78
2021/01/12 08:09:56;;;;;;;13.70;7.40;;;1.90;99.90;;;;;;6203299;28;20070;-78
2021/01/12 08:13:07;;;;;;;20.07;10.87;;;1.90;99.90;;;;;;6203942;28;20149;-79
2021/01/12 08:16:09;;;;;;;11.50;6.57;;;2.00;99.90;;;;;;6201762;28;20054;-81
2021/01/12 08:19:11;;;;;;;19.53;10.60;;;1.90;99.90;;;;;;6203503;28;20584;-78
2021/01/12 08:22:16;;;;;;;16.23;9.13;;;1.90;99.90;;;;;;6203604;28;20038;-80
2021/01/12 08:25:19;;;;;;;18.03;11.47;;;1.90;99.90;;;;;;6203773;28;20061;-79
2021/01/12 08:28:20;;;;;;;14.90;8.13;;;1.90;99.90;;;;;;6203029;28;20100;-80
2021/01/12 08:31:22;;;;;;;13.30;8.13;;;1.90;99.90;;;;;;6200959;28;20043;-79
2021/01/12 08:34:26;;;;;;;15.47;9.00;;;1.90;99.90;;;;;;6201826;28;20049;-79
2021/01/12 08:37:28;;;;;;;12.50;6.57;;;1.90;99.90;;;;;;6200315;28;20401;-80
2021/01/12 08:40:32;;;;;;;10.57;6.37;;;1.90;99.90;;;;;;6201751;28;20472;-79
2021/01/12 08:43:34;;;;;;;12.47;6.93;;;1.90;99.90;;;;;;6201398;28;20085;-79
2021/01/12 08:46:36;;;;;;;15.80;8.67;;;1.90;99.90;;;;;;6200468;28;20050;-81
2021/01/12 08:49:38;;;;;;;14.73;7.97;;;1.90;99.90;;;;;;6200476;28;20571;-80
2021/01/12 08:52:44;;;;;;;14.93;7.70;;;1.80;99.90;;;;;;6201596;28;20463;-80
2021/01/12 08:55:45;;;;;;;12.97;7.37;;;2.00;99.90;;;;;;6200620;28;20120;-80
2021/01/12 08:58:47;;;;;;;13.37;6.93;;;1.80;99.90;;;;;;6200362;28;20074;-80
2021/01/12 09:01:49;;;;;;;13.87;7.63;;;1.80;99.90;;;;;;6200434;28;20093;-80
2021/01/12 09:04:59;;;;;;;18.00;8.93;;;1.80;99.90;;;;;;6202007;28;20050;-79
2021/01/12 09:08:05;;;;;;;10.57;7.90;;;1.80;99.90;;;;;;6201135;28;20047;-78
2021/01/12 09:11:06;;;;;;;11.10;8.80;;;1.80;99.90;;;;;;6200832;28;20050;-78
2021/01/12 09:14:08;;;;;;;12.70;7.53;;;1.80;99.90;;;;;;6201193;28;20125;-78
2021/01/12 09:17:16;;;;;;;10.67;6.73;;;1.70;99.90;;;;;;6201652;28;20049;-78
2021/01/12 09:20:25;;;;;;;11.37;7.70;;;1.80;99.90;;;;;;6200812;28;20047;-80
2021/01/12 09:23:27;;;;;;;15.27;9.53;;;1.80;99.90;;;;;;6202185;28;20057;-80
2021/01/12 09:26:29;;;;;;;13.00;7.67;;;1.80;99.90;;;;;;6201068;28;20524;-80
2021/01/12 09:29:37;;;;;;;13.93;8.17;;;1.90;99.90;;;;;;6200796;28;20054;-80
2021/01/12 09:32:41;;;;;;;14.23;7.60;;;1.90;99.90;;;;;;6202384;28;20050;-78
2021/01/12 09:35:43;;;;;;;16.53;8.40;;;1.90;99.90;;;;;;6201288;28;20054;-80
2021/01/12 09:38:45;;;;;;;15.23;7.47;;;1.90;99.90;;;;;;6201066;28;20125;-80
2021/01/12 09:41:52;;;;;;;12.20;7.33;;;1.90;99.90;;;;;;6200621;28;20483;-79
2021/01/12 09:44:55;;;;;;;10.53;6.60;;;1.90;99.90;;;;;;6201610;28;20050;-79
2021/01/12 09:47:57;;;;;;;10.47;6.70;;;1.90;99.90;;;;;;6201693;28;20293;-80
2021/01/12 09:50:59;;;;;;;14.23;6.67;;;1.90;99.90;;;;;;6205064;28;20046;-80
2021/01/12 09:54:00;;;;;;;8.97;6.07;;;1.70;99.90;;;;;;6209099;28;20046;-80
2021/01/12 09:57:03;;;;;;;11.07;6.10;;;2.00;99.90;;;;;;6205296;28;20082;-79
2021/01/12 10:00:07;;;;;;;13.17;7.70;;;1.90;99.90;;;;;;6205538;28;20121;-79
2021/01/12 10:03:10;;;;;;;12.83;7.23;;;1.90;99.90;;;;;;6204311;28;20101;-79
2021/01/12 10:06:19;;;;;;;13.47;5.87;;;1.80;99.90;;;;;;6205429;28;20472;-78
2021/01/12 10:09:20;;;;;;;17.13;7.60;;;1.80;99.90;;;;;;6204402;28;20129;-79
2021/01/12 10:12:21;;;;;;;14.50;8.03;;;1.80;99.90;;;;;;6204937;28;20046;-78
2021/01/12 10:15:23;;;;;;;9.73;6.50;;;1.80;99.90;;;;;;6201725;28;20400;-79
2021/01/12 10:18:25;;;;;;;16.63;8.63;;;1.80;99.90;;;;;;6203537;28;20042;-78
2021/01/12 10:21:26;;;;;;;12.57;6.93;;;1.80;99.90;;;;;;6204027;28;20054;-77
2021/01/12 10:24:28;;;;;;;13.77;7.80;;;1.80;99.90;;;;;;6203622;28;20062;-77
2021/01/12 10:27:33;;;;;;;12.80;6.60;;;1.80;99.90;;;;;;6199680;28;20061;-77
2021/01/12 10:30:35;;;;;;;14.33;7.67;;;1.90;99.90;;;;;;6201773;28;20038;-77
2021/01/12 10:33:38;;;;;;;12.10;7.60;;;1.90;99.90;;;;;;6201816;28;20050;-78
2021/01/12 10:36:39;;;;;;;11.40;7.30;;;1.90;99.90;;;;;;6202830;28;20046;-77
2021/01/12 10:39:42;;;;;;;14.53;7.87;;;1.90;99.90;;;;;;6204180;28;20046;-80
2021/01/12 10:42:45;;;;;;;17.10;8.23;;;1.90;99.90;;;;;;6203951;28;20050;-78
2021/01/12 10:45:46;;;;;;;15.97;6.77;;;1.90;99.90;;;;;;6204251;28;20049;-80
2021/01/12 10:48:49;;;;;;;13.43;6.73;;;2.00;99.90;;;;;;6204780;28;20133;-79
2021/01/12 10:51:57;;;;;;;15.43;7.97;;;1.90;99.90;;;;;;6203858;28;20050;-79
2021/01/12 10:54:58;;;;;;;11.52;7.07;;;2.00;99.90;;;;;;6203640;28;20057;-77
2021/01/12 10:58:00;;;;;;;18.63;8.07;;;2.00;99.90;;;;;;6203387;28;20049;-77
2021/01/12 11:01:02;;;;;;;21.03;8.63;;;2.00;99.90;;;;;;6203492;28;20050;-78
2021/01/12 11:04:04;;;;;;;19.73;10.43;;;2.10;99.90;;;;;;6203926;28;20051;-79
2021/01/12 11:07:05;;;;;;;17.97;10.27;;;2.10;99.90;;;;;;6203495;28;20520;-79
2021/01/12 11:10:08;;;;;;;14.20;7.03;;;2.10;99.90;;;;;;6202913;28;20046;-79
2021/01/12 11:13:10;;;;;;;19.40;7.47;;;2.20;99.90;;;;;;6204227;28;20076;-81
2021/01/12 11:16:15;;;;;;;17.40;8.80;;;2.20;99.90;;;;;;6203759;28;20519;-78
2021/01/12 11:19:18;;;;;;;18.53;8.90;;;2.20;99.90;;;;;;6203490;28;20121;-78
2021/01/12 11:22:26;;;;;;;18.33;8.63;;;2.30;99.90;;;;;;6203447;28;20049;-78
2021/01/12 11:25:29;;;;;;;17.63;9.30;;;2.30;99.90;;;;;;6203537;28;20184;-79
2021/01/12 11:28:30;;;;;;;17.63;9.27;;;2.30;99.90;;;;;;6203196;28;20117;-79
2021/01/12 11:31:32;;;;;;;19.47;8.63;;;2.30;99.90;;;;;;6203135;28;20078;-78
2021/01/12 11:34:34;;;;;;;25.23;9.77;;;2.30;99.90;;;;;;6202773;28;20073;-78
2021/01/12 11:37:36;;;;;;;15.37;8.40;;;2.30;99.90;;;;;;6202129;28;20062;-78
2021/01/12 11:40:37;;;;;;;15.10;7.80;;;2.30;99.90;;;;;;6202845;28;20512;-79
2021/01/12 11:43:39;;;;;;;17.93;8.03;;;2.30;99.90;;;;;;6202217;28;20511;-79
2021/01/12 11:46:42;;;;;;;14.57;6.70;;;2.40;99.90;;;;;;6201612;28;20125;-78
2021/01/12 11:49:44;;;;;;;13.63;6.63;;;2.40;99.90;;;;;;6201369;28;20047;-79
2021/01/12 11:52:45;;;;;;;14.23;6.20;;;2.40;99.90;;;;;;6201390;28;20047;-78
2021/01/12 11:55:46;;;;;;;14.20;6.90;;;2.30;99.90;;;;;;6202300;28;20117;-78
2021/01/12 11:58:50;;;;;;;16.63;7.90;;;2.30;99.90;;;;;;6203219;28;20732;-79
2021/01/12 12:01:53;;;;;;;11.13;6.00;;;2.40;99.90;;;;;;6200848;28;20115;-78
2021/01/12 12:04:55;;;;;;;12.67;6.53;;;2.40;99.90;;;;;;6201789;28;20046;-80
2021/01/12 12:07:56;;;;;;;14.50;6.80;;;2.50;99.90;;;;;;6200353;28;20050;-78
2021/01/12 12:11:02;;;;;;;12.63;7.23;;;2.40;99.90;;;;;;6200417;28;20076;-77
2021/01/12 12:14:04;;;;;;;17.37;7.00;;;2.50;99.90;;;;;;6200664;28;20050;-79
2021/01/12 12:17:06;;;;;;;9.53;5.03;;;2.50;99.90;;;;;;6202219;28;20500;-80
2021/01/12 12:20:11;;;;;;;8.07;4.93;;;2.50;99.90;;;;;;6200606;28;20053;-79
2021/01/12 12:23:12;;;;;;;7.63;5.00;;;2.40;99.90;;;;;;6199862;28;20046;-78
2021/01/12 12:26:15;;;;;;;10.70;4.53;;;2.50;99.90;;;;;;6200128;28;20042;-77
2021/01/12 12:29:16;;;;;;;10.57;4.20;;;2.40;99.90;;;;;;6200565;28;20046;-80
2021/01/12 12:32:18;;;;;;;6.53;4.73;;;2.40;99.90;;;;;;6202111;28;20073;-78
2021/01/12 12:35:20;;;;;;;8.07;3.80;;;2.40;99.90;;;;;;6199831;28;20050;-77
2021/01/12 12:38:21;;;;;;;6.50;3.70;;;2.50;99.90;;;;;;6199899;28;20062;-78
2021/01/12 12:41:23;;;;;;;3.90;3.13;;;2.40;99.90;;;;;;6199179;28;20089;-78
2021/01/12 12:44:24;;;;;;;4.90;3.33;;;2.40;99.90;;;;;;6200048;28;20053;-77
2021/01/12 12:47:25;;;;;;;6.60;4.23;;;2.40;99.90;;;;;;6200015;28;20074;-77
2021/01/12 12:50:28;;;;;;;5.70;3.93;;;2.50;99.90;;;;;;6200140;28;20042;-77
2021/01/12 12:53:33;;;;;;;7.73;3.80;;;2.50;99.90;;;;;;6198982;28;20397;-78
2021/01/12 12:56:35;;;;;;;6.30;3.80;;;2.50;99.90;;;;;;6199413;28;20416;-78
2021/01/12 12:59:37;;;;;;;10.57;5.63;;;2.50;99.90;;;;;;6199986;28;20042;-77
2021/01/12 13:02:39;;;;;;;8.43;4.70;;;2.60;99.90;;;;;;6200583;28;20511;-78
2021/01/12 13:05:42;;;;;;;11.43;6.47;;;2.60;99.90;;;;;;6200464;28;20128;-77
2021/01/12 13:08:44;;;;;;;6.57;4.73;;;2.60;99.90;;;;;;6199304;28;20104;-78
2021/01/12 13:11:53;;;;;;;7.55;5.85;;;2.60;99.90;;;;;;6200409;28;20053;-78
2021/01/12 13:14:56;;;;;;;31.97;19.97;;;2.70;99.90;;;;;;6200483;28;20073;-78
2021/01/12 13:17:59;;;;;;;6.83;4.77;;;2.70;99.90;;;;;;6200410;28;20048;-77
2021/01/12 13:21:02;;;;;;;3.27;2.93;;;2.70;99.90;;;;;;6198664;28;20137;-78
2021/01/12 13:24:04;;;;;;;5.97;4.07;;;2.70;99.90;;;;;;6197210;28;20050;-77
2021/01/12 13:27:07;;;;;;;8.77;5.80;;;2.80;99.90;;;;;;6197394;28;20046;-76
2021/01/12 13:30:09;;;;;;;26.40;17.83;;;2.80;99.90;;;;;;6198032;28;20046;-77
2021/01/12 13:33:12;;;;;;;11.87;9.37;;;2.80;99.90;;;;;;6198369;28;20054;-77
2021/01/12 13:36:14;;;;;;;7.37;5.17;;;2.80;99.90;;;;;;6198181;28;20061;-77
2021/01/12 13:39:17;;;;;;;7.27;4.10;;;2.80;99.90;;;;;;6197240;28;20121;-78
2021/01/12 13:42:18;;;;;;;7.25;5.85;;;2.80;99.90;;;;;;6198184;28;20185;-77
2021/01/12 13:45:21;;;;;;;5.53;2.80;;;2.80;99.90;;;;;;6199046;28;20077;-77
2021/01/12 13:48:22;;;;;;;10.20;6.33;;;2.80;99.90;;;;;;6198012;28;20046;-77
2021/01/12 13:51:25;;;;;;;8.25;5.03;;;2.90;99.90;;;;;;6198356;28;20122;-77
2021/01/12 13:54:27;;;;;;;7.73;4.90;;;3.10;99.90;;;;;;6200217;28;20061;-78
2021/01/12 13:57:30;;;;;;;10.00;5.90;;;3.10;99.90;;;;;;6200591;28;20137;-78
2021/01/12 14:00:32;;;;;;;6.77;4.40;;;3.20;99.90;;;;;;6201037;28;20129;-77
2021/01/12 14:03:33;;;;;;;6.93;4.45;;;3.30;99.90;;;;;;6200672;28;20106;-77
2021/01/12 14:06:36;;;;;;;16.40;12.83;;;3.30;99.90;;;;;;6200771;28;20114;-78
2021/01/12 14:09:37;;;;;;;9.88;7.68;;;3.30;99.90;;;;;;6199416;28;20042;-77
2021/01/12 14:12:40;;;;;;;4.50;3.70;;;3.20;99.90;;;;;;6200361;28;20054;-77
2021/01/12 14:15:42;;;;;;;21.93;18.83;;;3.30;99.90;;;;;;6200978;28;20051;-78
2021/01/12 14:18:44;;;;;;;8.68;6.93;;;3.30;99.90;;;;;;6200307;28;20042;-78
2021/01/12 14:21:47;;;;;;;9.95;8.50;;;3.40;99.90;;;;;;6200498;28;20042;-78
2021/01/12 14:24:50;;;;;;;5.82;3.90;;;3.50;99.90;;;;;;6201226;28;20056;-78
2021/01/12 14:27:54;;;;;;;9.27;5.20;;;3.40;99.90;;;;;;6199474;28;20538;-78
2021/01/12 14:30:56;;;;;;;9.38;5.32;;;3.40;99.90;;;;;;6199361;28;20126;-77
2021/01/12 14:33:58;;;;;;;14.55;8.15;;;3.20;99.90;;;;;;6199600;28;20178;-79
2021/01/12 14:37:04;;;;;;;5.55;2.92;;;3.20;99.90;;;;;;6203494;28;20154;-78
2021/01/12 14:40:11;;;;;;;7.35;5.10;;;3.10;99.90;;;;;;6204202;28;20500;-78
2021/01/12 14:43:13;;;;;;;8.27;5.10;;;3.10;99.90;;;;;;6204516;28;20046;-77
2021/01/12 14:46:18;;;;;;;14.57;8.20;;;3.10;99.90;;;;;;6204512;28;20474;-78
2021/01/12 14:49:19;;;;;;;4.25;3.00;;;3.00;99.90;;;;;;6204886;28;20439;-79
2021/01/12 14:52:21;;;;;;;11.45;8.52;;;3.10;99.90;;;;;;6204754;28;20046;-78
2021/01/12 14:55:23;;;;;;;8.45;5.10;;;3.00;99.90;;;;;;6204943;28;20045;-80
2021/01/12 14:58:24;;;;;;;7.15;3.58;;;3.10;99.90;;;;;;6204534;28;20532;-78
2021/01/12 15:01:33;;;;;;;14.82;13.43;;;3.10;99.90;;;;;;6204588;28;20054;-80
2021/01/12 15:04:35;;;;;;;4.70;3.40;;;3.10;99.90;;;;;;6204554;28;20097;-77
2021/01/12 15:07:37;;;;;;;15.27;10.43;;;3.10;99.90;;;;;;6204703;28;20066;-77
2021/01/12 15:10:38;;;;;;;10.70;6.07;;;2.40;99.90;;;;;;6204662;28;20080;-78
2021/01/12 15:13:39;;;;;;;6.33;4.13;;;3.10;99.90;;;;;;6203808;28;20054;-78
2021/01/12 15:16:41;;;;;;;8.10;5.53;;;3.10;99.90;;;;;;6204977;28;20061;-78
2021/01/12 15:19:42;;;;;;;5.07;3.70;;;3.10;99.90;;;;;;6203257;28;20118;-79
2021/01/12 15:22:44;;;;;;;7.40;3.87;;;3.10;99.90;;;;;;6204311;28;20050;-79
2021/01/12 15:25:45;;;;;;;10.17;4.27;;;3.10;99.90;;;;;;6204656;28;20050;-79
2021/01/12 15:28:47;;;;;;;5.45;3.97;;;3.00;99.90;;;;;;6205055;28;20050;-78
2021/01/12 15:31:53;;;;;;;7.00;4.75;;;3.00;99.90;;;;;;6204524;28;20052;-79
2021/01/12 15:34:55;;;;;;;13.73;9.23;;;3.00;99.90;;;;;;6204559;28;20137;-79
2021/01/12 15:37:57;;;;;;;16.00;10.97;;;3.10;99.90;;;;;;6204437;28;20046;-78
2021/01/12 15:40:58;;;;;;;7.35;5.25;;;3.50;99.90;;;;;;6204746;28;20046;-79
2021/01/12 15:43:59;;;;;;;7.87;5.90;;;3.10;99.90;;;;;;6204216;28;20133;-78
2021/01/12 15:47:01;;;;;;;6.28;4.28;;;3.20;99.90;;;;;;6203306;28;20078;-79
2021/01/12 15:50:03;;;;;;;8.57;5.60;;;3.20;99.90;;;;;;6203927;28;20053;-77
2021/01/12 15:53:05;;;;;;;5.83;4.13;;;3.20;99.90;;;;;;6204486;28;20150;-78